Flight Track Log - Related Links

Times and Time Zones

All times are in EDT time to prevent confusion due to time zone crossing. See the FLG3395 flight status page for this flight to view local times or setup timezone preferences in your user account.

Time Position Orientation Groundspeed Altitude Reporting Facility
EDT Latitude Longitude Course Direction KTS MPH feet Rate Location/Type
Sun 10:25:13 PM 40.6333 -73.8333 232° Southwest 153 176 1,800  Level New TRACON
Sun 10:26:13 PM 40.6167 -73.8833 246° West 201 231 3,900 2,557 Climbing New TRACON
Sun 10:27:08 PM 40.5667 -73.9333 217° Southwest 249 287 6,700 3,000 Climbing New TRACON
Sun 10:28:13 PM 40.5000 -74.0000 217° Southwest 270 311 9,900 2,784 Climbing New TRACON
Sun 10:29:00 PM 40.3466 -74.2336 232° Southwest  Level FlightAware
Sun 10:29:13 PM 40.4500 -74.0667 225° Southwest 288 331 12,500  Level New TRACON
Sun 10:30:00 PM 40.2877 -74.3317 232° Southwest  Level FlightAware
Sun 10:30:08 PM 40.4167 -74.1500 242° Southwest 292 336 15,000  Level New TRACON
Sun 10:30:54 PM 40.3739 -74.2172 230° Southwest 292 336 16,900 1,189 Climbing New Center
Sun 10:31:54 PM 40.3356 -74.3161 243° Southwest 298 343 17,100 295 Climbing New Center
Sun 10:32:56 PM 40.3153 -74.4319 257° West 323 372 17,500 1,160 Climbing New Center
Sun 10:33:53 PM 40.2953 -74.5317 255° West 330 380 19,400 1,282 Climbing New Center
Sun 10:34:53 PM 40.2728 -74.6528 256° West 337 388 20,000 298 Climbing New Center
Sun 10:35:54 PM 40.2478 -74.7739 255° West 337 388 20,000  Level New Center
Sun 10:36:53 PM 40.2272 -74.8897 257° West 337 388 20,000  Level New Center
Sun 10:37:54 PM 40.2064 -75.0025 256° West 332 382 20,000  Level New Center
Sun 10:38:54 PM 40.1836 -75.1181 256° West 332 382 20,000  Level New Center
Sun 10:39:54 PM 40.1606 -75.2333 255° West 332 382 20,000  Level New Center
Sun 10:40:55 PM 40.1369 -75.3539 256° West 332 382 20,000  Level New Center
Sun 10:41:54 PM 40.0683 -75.4606 230° Southwest 349 402 20,000  Level New Center
Sun 10:42:54 PM 40.0081 -75.5542 230° Southwest 349 402 20,000  Level New Center
Sun 10:43:55 PM 39.9503 -75.6450 230° Southwest 339 390 20,000  Level New Center
Sun 10:44:55 PM 39.8878 -75.7408 230° Southwest 339 390 20,000  Level New Center
Sun 10:45:53 PM 39.8275 -75.8364 231° Southwest 344 396 20,000 -174 Level New Center
Sun 10:48:22 PM 39.6833 -76.0667 231° Southwest 336 387 19,400 -775 Descending Potomac TRACON
Sun 10:49:22 PM 39.6167 -76.1667 229° Southwest 342 394 17,300 -2,100 Descending Potomac TRACON
Sun 10:50:22 PM 39.5500 -76.2500 224° Southwest 338 389 15,200 -2,105 Descending Potomac TRACON
Sun 10:51:16 PM 39.5000 -76.3333 232° Southwest 336 387 13,300 -2,105 Descending Potomac TRACON
Sun 10:52:16 PM 39.4333 -76.4333 229° Southwest 332 382 11,200 -1,650 Descending Potomac TRACON
Sun 10:53:16 PM 39.3667 -76.5000 218° Southwest 335 386 10,000 -600 Descending Potomac TRACON
Sun 10:54:16 PM 39.2833 -76.5667 212° Southwest 344 396 10,000  Level Potomac TRACON
Sun 10:55:16 PM 39.2167 -76.6333 218° Southwest 309 356 10,000  Level Potomac TRACON
Sun 10:56:16 PM 39.1500 -76.6833 210° Southwest 270 311 10,000  Level Potomac TRACON
Sun 10:57:22 PM 39.0833 -76.7667 224° Southwest 265 305 10,000 -714 Level Potomac TRACON
Sun 10:58:22 PM 39.0333 -76.8167 218° Southwest 254 292 8,500 -1,800 Descending Potomac TRACON
Sun 10:59:22 PM 38.9833 -76.8833 226° Southwest 254 292 6,400 -2,050 Descending Potomac TRACON
Sun 11:00:22 PM 38.9333 -76.9333 218° Southwest 255 293 4,400 -1,700 Descending Potomac TRACON
Sun 11:01:22 PM 38.8500 -76.9500 189° South 274 315 3,000 -737 Descending Potomac TRACON
Sun 11:02:16 PM 38.8000 -76.9500 180° South 274 315 3,000  Level Potomac TRACON
Sun 11:03:16 PM 38.7333 -76.9333 169° South 208 239 3,000 -450 Level Potomac TRACON
Sun 11:04:16 PM 38.7000 -76.9833 230° Southwest 162 186 2,100 -900 Descending Potomac TRACON

Login

Don't have an account? Register now (free) for customized features, flight alerts, and more!